sensor_id;sensor_type;location;lat;lon;timestamp;pressure;altitude;pressure_sealevel;temperature;humidity
44103;BME280;29769;42.178;24.742;2023-04-04T00:00:00;98331.19;;;9.73;100.00
44103;BME280;29769;42.178;24.742;2023-04-04T00:02:45;98332.16;;;9.70;100.00
44103;BME280;29769;42.178;24.742;2023-04-04T00:05:29;98319.91;;;9.69;100.00
44103;BME280;29769;42.178;24.742;2023-04-04T00:08:14;98305.91;;;9.70;100.00
44103;BME280;29769;42.178;24.742;2023-04-04T00:10:59;98296.44;;;9.65;100.00
44103;BME280;29769;42.178;24.742;2023-04-04T00:13:45;98297.88;;;9.75;100.00
44103;BME280;29769;42.178;24.742;2023-04-04T00:16:29;98288.16;;;9.77;100.00
44103;BME280;29769;42.178;24.742;2023-04-04T00:19:14;98282.91;;;9.77;100.00
44103;BME280;29769;42.178;24.742;2023-04-04T00:22:01;98289.88;;;9.78;100.00
44103;BME280;29769;42.178;24.742;2023-04-04T00:24:46;98289.97;;;9.75;100.00
44103;BME280;29769;42.178;24.742;2023-04-04T00:27:32;98275.78;;;9.80;100.00
44103;BME280;29769;42.178;24.742;2023-04-04T00:30:17;98273.94;;;9.82;100.00
44103;BME280;29769;42.178;24.742;2023-04-04T00:33:01;98266.97;;;9.81;100.00
44103;BME280;29769;42.178;24.742;2023-04-04T00:35:47;98253.97;;;9.78;100.00
44103;BME280;29769;42.178;24.742;2023-04-04T00:38:31;98252.41;;;9.73;100.00
44103;BME280;29769;42.178;24.742;2023-04-04T00:41:16;98278.41;;;9.80;100.00
44103;BME280;29769;42.178;24.742;2023-04-04T00:44:01;98274.81;;;9.83;100.00
44103;BME280;29769;42.178;24.742;2023-04-04T00:46:46;98273.16;;;9.80;100.00
44103;BME280;29769;42.178;24.742;2023-04-04T00:49:31;98273.88;;;9.86;100.00
44103;BME280;29769;42.178;24.742;2023-04-04T00:52:17;98258.00;;;9.89;100.00
44103;BME280;29769;42.178;24.742;2023-04-04T00:55:03;98263.25;;;9.89;100.00
44103;BME280;29769;42.178;24.742;2023-04-04T00:57:48;98258.94;;;9.86;100.00
44103;BME280;29769;42.178;24.742;2023-04-04T01:00:35;98261.63;;;9.85;100.00
44103;BME280;29769;42.178;24.742;2023-04-04T01:03:20;98258.03;;;9.87;100.00
44103;BME280;29769;42.178;24.742;2023-04-04T01:06:07;98244.84;;;9.89;100.00
44103;BME280;29769;42.178;24.742;2023-04-04T01:08:53;98244.00;;;9.88;100.00
44103;BME280;29769;42.178;24.742;2023-04-04T01:11:38;98244.03;;;9.87;100.00
44103;BME280;29769;42.178;24.742;2023-04-04T01:14:24;98242.34;;;9.86;100.00
44103;BME280;29769;42.178;24.742;2023-04-04T01:17:09;98244.13;;;9.85;100.00
44103;BME280;29769;42.178;24.742;2023-04-04T01:20:06;98233.66;;;9.83;100.00
44103;BME280;29769;42.178;24.742;2023-04-04T01:23:03;98239.72;;;9.86;100.00
44103;BME280;29769;42.178;24.742;2023-04-04T01:25:49;98244.81;;;9.90;100.00
44103;BME280;29769;42.178;24.742;2023-04-04T01:28:34;98240.47;;;9.89;100.00
44103;BME280;29769;42.178;24.742;2023-04-04T01:31:28;98231.59;;;9.92;100.00
44103;BME280;29769;42.178;24.742;2023-04-04T01:40:34;98234.22;;;9.92;100.00
44103;BME280;29769;42.178;24.742;2023-04-04T01:43:24;98224.59;;;9.92;100.00
44103;BME280;29769;42.178;24.742;2023-04-04T01:46:09;98235.09;;;9.92;100.00
44103;BME280;29769;42.178;24.742;2023-04-04T01:48:54;98234.88;;;9.98;100.00
44103;BME280;29769;42.178;24.742;2023-04-04T01:51:48;98229.56;;;10.00;100.00
44103;BME280;29769;42.178;24.742;2023-04-04T01:54:33;98230.25;;;10.05;100.00
44103;BME280;29769;42.178;24.742;2023-04-04T01:57:20;98235.34;;;10.09;100.00
44103;BME280;29769;42.178;24.742;2023-04-04T02:00:05;98225.84;;;10.05;100.00
44103;BME280;29769;42.178;24.742;2023-04-04T02:03:00;98222.50;;;10.02;100.00
44103;BME280;29769;42.178;24.742;2023-04-04T02:05:46;98200.91;;;9.94;100.00
44103;BME280;29769;42.178;24.742;2023-04-04T02:08:31;98214.44;;;10.06;100.00
44103;BME280;29769;42.178;24.742;2023-04-04T02:11:15;98228.31;;;10.10;100.00
44103;BME280;29769;42.178;24.742;2023-04-04T02:14:00;98231.81;;;10.10;100.00
44103;BME280;29769;42.178;24.742;2023-04-04T02:16:46;98227.41;;;10.11;100.00
44103;BME280;29769;42.178;24.742;2023-04-04T02:19:31;98230.03;;;10.11;100.00
44103;BME280;29769;42.178;24.742;2023-04-04T02:22:17;98225.69;;;10.10;100.00
44103;BME280;29769;42.178;24.742;2023-04-04T02:25:01;98230.03;;;10.11;100.00
44103;BME280;29769;42.178;24.742;2023-04-04T02:27:47;98223.88;;;10.12;100.00
44103;BME280;29769;42.178;24.742;2023-04-04T02:30:31;98221.13;;;10.15;100.00
44103;BME280;29769;42.178;24.742;2023-04-04T02:33:18;98216.78;;;10.14;100.00
44103;BME280;29769;42.178;24.742;2023-04-04T02:36:03;98221.25;;;10.12;100.00
44103;BME280;29769;42.178;24.742;2023-04-04T02:38:48;98225.66;;;10.11;100.00
44103;BME280;29769;42.178;24.742;2023-04-04T02:41:33;98228.41;;;10.08;100.00
44103;BME280;29769;42.178;24.742;2023-04-04T02:44:18;98216.53;;;9.97;100.00
44103;BME280;29769;42.178;24.742;2023-04-04T02:47:05;98226.19;;;9.96;100.00
44103;BME280;29769;42.178;24.742;2023-04-04T02:49:50;98217.44;;;9.96;100.00
44103;BME280;29769;42.178;24.742;2023-04-04T02:52:36;98218.47;;;9.92;100.00
44103;BME280;29769;42.178;24.742;2023-04-04T02:55:27;98216.91;;;9.86;100.00
44103;BME280;29769;42.178;24.742;2023-04-04T02:58:12;98216.25;;;9.81;100.00
44103;BME280;29769;42.178;24.742;2023-04-04T03:00:56;98212.75;;;9.80;100.00
44103;BME280;29769;42.178;24.742;2023-04-04T03:03:46;98214.41;;;9.83;100.00
44103;BME280;29769;42.178;24.742;2023-04-04T03:06:31;98226.59;;;9.86;100.00
44103;BME280;29769;42.178;24.742;2023-04-04T03:09:17;98221.38;;;9.84;100.00
44103;BME280;29769;42.178;24.742;2023-04-04T03:12:02;98202.59;;;9.71;100.00
44103;BME280;29769;42.178;24.742;2023-04-04T03:14:48;98213.00;;;9.73;100.00
44103;BME280;29769;42.178;24.742;2023-04-04T03:17:33;98212.31;;;9.68;100.00
44103;BME280;29769;42.178;24.742;2023-04-04T03:20:18;98216.03;;;9.62;100.00
44103;BME280;29769;42.178;24.742;2023-04-04T03:23:03;98216.13;;;9.59;100.00
44103;BME280;29769;42.178;24.742;2023-04-04T03:25:48;98217.88;;;9.59;100.00
44103;BME280;29769;42.178;24.742;2023-04-04T03:28:33;98218.75;;;9.59;100.00
44103;BME280;29769;42.178;24.742;2023-04-04T03:31:19;98205.59;;;9.61;100.00
44103;BME280;29769;42.178;24.742;2023-04-04T03:34:04;98203.00;;;9.59;100.00
44103;BME280;29769;42.178;24.742;2023-04-04T03:36:49;98226.38;;;9.67;100.00
44103;BME280;29769;42.178;24.742;2023-04-04T03:39:35;98235.88;;;9.71;100.00
44103;BME280;29769;42.178;24.742;2023-04-04T03:42:21;98233.13;;;9.74;100.00
44103;BME280;29769;42.178;24.742;2023-04-04T03:45:07;98237.34;;;9.78;100.00
44103;BME280;29769;42.178;24.742;2023-04-04T03:47:53;98225.53;;;9.66;100.00
44103;BME280;29769;42.178;24.742;2023-04-04T03:50:39;98255.66;;;9.81;100.00
44103;BME280;29769;42.178;24.742;2023-04-04T03:53:27;98236.56;;;9.76;100.00
44103;BME280;29769;42.178;24.742;2023-04-04T03:56:12;98245.13;;;9.81;100.00
44103;BME280;29769;42.178;24.742;2023-04-04T03:58:58;98242.44;;;9.82;100.00
44103;BME280;29769;42.178;24.742;2023-04-04T04:01:45;98244.13;;;9.85;100.00
44103;BME280;29769;42.178;24.742;2023-04-04T04:04:30;98256.28;;;9.88;100.00
44103;BME280;29769;42.178;24.742;2023-04-04T04:07:15;98264.16;;;9.88;100.00
44103;BME280;29769;42.178;24.742;2023-04-04T04:10:00;98265.75;;;9.92;100.00
44103;BME280;29769;42.178;24.742;2023-04-04T04:12:44;98259.59;;;9.93;100.00
44103;BME280;29769;42.178;24.742;2023-04-04T04:15:31;98260.47;;;9.93;100.00
44103;BME280;29769;42.178;24.742;2023-04-04T04:18:18;98259.44;;;9.97;100.00
44103;BME280;29769;42.178;24.742;2023-04-04T04:21:03;98261.91;;;10.02;100.00
44103;BME280;29769;42.178;24.742;2023-04-04T04:23:50;98259.28;;;10.02;100.00
44103;BME280;29769;42.178;24.742;2023-04-04T04:26:34;98261.72;;;10.06;100.00
44103;BME280;29769;42.178;24.742;2023-04-04T04:29:20;98257.22;;;10.10;100.00
44103;BME280;29769;42.178;24.742;2023-04-04T04:32:05;98259.84;;;10.10;100.00
44103;BME280;29769;42.178;24.742;2023-04-04T04:34:54;98251.09;;;10.09;100.00
44103;BME280;29769;42.178;24.742;2023-04-04T04:37:45;98259.81;;;10.11;100.00
44103;BME280;29769;42.178;24.742;2023-04-04T04:40:33;98265.78;;;10.15;100.00
44103;BME280;29769;42.178;24.742;2023-04-04T04:43:23;98270.19;;;10.16;100.00
44103;BME280;29769;42.178;24.742;2023-04-04T04:46:09;98266.63;;;10.17;100.00
44103;BME280;29769;42.178;24.742;2023-04-04T04:48:54;98270.19;;;10.16;100.00
44103;BME280;29769;42.178;24.742;2023-04-04T04:51:44;98255.72;;;10.03;100.00
44103;BME280;29769;42.178;24.742;2023-04-04T04:54:32;98279.66;;;10.20;100.00
44103;BME280;29769;42.178;24.742;2023-04-04T04:57:16;98277.91;;;10.20;100.00
44103;BME280;29769;42.178;24.742;2023-04-04T05:00:03;98277.72;;;10.25;100.00
44103;BME280;29769;42.178;24.742;2023-04-04T05:02:48;98278.59;;;10.25;100.00
44103;BME280;29769;42.178;24.742;2023-04-04T05:05:43;98266.19;;;10.29;100.00
44103;BME280;29769;42.178;24.742;2023-04-04T05:08:31;98264.38;;;10.31;100.00
44103;BME280;29769;42.178;24.742;2023-04-04T05:11:24;98261.75;;;10.31;100.00
44103;BME280;29769;42.178;24.742;2023-04-04T05:14:10;98222.31;;;10.06;100.00
44103;BME280;29769;42.178;24.742;2023-04-04T05:17:03;98270.41;;;10.33;100.00
44103;BME280;29769;42.178;24.742;2023-04-04T05:19:50;98267.63;;;10.38;100.00
44103;BME280;29769;42.178;24.742;2023-04-04T05:22:42;98263.78;;;10.46;100.00
44103;BME280;29769;42.178;24.742;2023-04-04T05:25:28;98264.59;;;10.48;100.00
44103;BME280;29769;42.178;24.742;2023-04-04T05:28:13;98269.56;;;10.56;100.00
44103;BME280;29769;42.178;24.742;2023-04-04T05:30:58;98263.31;;;10.58;100.00
44103;BME280;29769;42.178;24.742;2023-04-04T05:33:45;98261.53;;;10.59;100.00
44103;BME280;29769;42.178;24.742;2023-04-04T05:36:51;98264.81;;;10.65;100.00
44103;BME280;29769;42.178;24.742;2023-04-04T05:39:37;98265.53;;;10.69;100.00
44103;BME280;29769;42.178;24.742;2023-04-04T05:42:26;98266.84;;;10.81;100.00
44103;BME280;29769;42.178;24.742;2023-04-04T05:45:14;98266.78;;;10.82;100.00
44103;BME280;29769;42.178;24.742;2023-04-04T05:47:59;98269.53;;;10.79;100.00
44103;BME280;29769;42.178;24.742;2023-04-04T05:50:47;98272.16;;;10.79;100.00
44103;BME280;29769;42.178;24.742;2023-04-04T05:53:33;98278.50;;;10.74;100.00
44103;BME280;29769;42.178;24.742;2023-04-04T05:56:20;98278.66;;;10.70;100.00
44103;BME280;29769;42.178;24.742;2023-04-04T06:10:21;98293.44;;;10.73;100.00
44103;BME280;29769;42.178;24.742;2023-04-04T06:13:07;98269.72;;;10.51;100.00
44103;BME280;29769;42.178;24.742;2023-04-04T06:15:52;98299.94;;;10.63;100.00
44103;BME280;29769;42.178;24.742;2023-04-04T06:18:38;98298.47;;;10.79;100.00
44103;BME280;29769;42.178;24.742;2023-04-04T06:21:22;98299.06;;;10.86;100.00
44103;BME280;29769;42.178;24.742;2023-04-04T06:24:07;98296.34;;;10.89;100.00
44103;BME280;29769;42.178;24.742;2023-04-04T06:26:52;98229.31;;;10.54;100.00
44103;BME280;29769;42.178;24.742;2023-04-04T06:29:40;98299.31;;;11.03;100.00
44103;BME280;29769;42.178;24.742;2023-04-04T06:32:27;98293.69;;;11.12;100.00
44103;BME280;29769;42.178;24.742;2023-04-04T06:35:12;98284.59;;;11.19;100.00
44103;BME280;29769;42.178;24.742;2023-04-04T06:38:04;98303.84;;;11.21;100.00
44103;BME280;29769;42.178;24.742;2023-04-04T06:40:50;98291.00;;;11.35;100.00
44103;BME280;29769;42.178;24.742;2023-04-04T06:43:36;98292.31;;;11.45;100.00
44103;BME280;29769;42.178;24.742;2023-04-04T06:46:20;98288.16;;;11.40;100.00
44103;BME280;29769;42.178;24.742;2023-04-04T06:49:05;98292.50;;;11.41;100.00
44103;BME280;29769;42.178;24.742;2023-04-04T06:51:51;98292.09;;;11.30;100.00
44103;BME280;29769;42.178;24.742;2023-04-04T06:54:38;98284.47;;;11.22;100.00
44103;BME280;29769;42.178;24.742;2023-04-04T06:57:22;98287.25;;;11.19;100.00
44103;BME280;29769;42.178;24.742;2023-04-04T07:00:08;98286.75;;;11.09;100.00
44103;BME280;29769;42.178;24.742;2023-04-04T07:02:57;98285.03;;;11.08;100.00
44103;BME280;29769;42.178;24.742;2023-04-04T07:05:42;98294.75;;;11.28;100.00
44103;BME280;29769;42.178;24.742;2023-04-04T07:08:29;98284.72;;;11.38;100.00
44103;BME280;29769;42.178;24.742;2023-04-04T07:11:16;98291.06;;;11.54;100.00
44103;BME280;29769;42.178;24.742;2023-04-04T07:14:01;98296.03;;;11.62;100.00
44103;BME280;29769;42.178;24.742;2023-04-04T07:16:46;98288.06;;;11.85;100.00
44103;BME280;29769;42.178;24.742;2023-04-04T07:19:31;98293.66;;;11.97;100.00
44103;BME280;29769;42.178;24.742;2023-04-04T07:22:15;98291.72;;;12.01;100.00
44103;BME280;29769;42.178;24.742;2023-04-04T07:25:00;98285.91;;;11.73;100.00
44103;BME280;29769;42.178;24.742;2023-04-04T07:27:45;98314.78;;;11.96;100.00
44103;BME280;29769;42.178;24.742;2023-04-04T07:30:30;98314.22;;;11.89;100.00
44103;BME280;29769;42.178;24.742;2023-04-04T07:33:16;98318.81;;;11.84;100.00
44103;BME280;29769;42.178;24.742;2023-04-04T07:36:01;98310.44;;;11.75;100.00
44103;BME280;29769;42.178;24.742;2023-04-04T07:38:47;98320.97;;;11.53;100.00
44103;BME280;29769;42.178;24.742;2023-04-04T07:41:32;98311.69;;;11.44;100.00
44103;BME280;29769;42.178;24.742;2023-04-04T07:44:18;98323.91;;;11.45;100.00
44103;BME280;29769;42.178;24.742;2023-04-04T07:47:02;98330.56;;;11.32;100.00
44103;BME280;29769;42.178;24.742;2023-04-04T07:49:47;98324.53;;;11.30;100.00
44103;BME280;29769;42.178;24.742;2023-04-04T07:52:32;98325.75;;;11.22;100.00
44103;BME280;29769;42.178;24.742;2023-04-04T07:55:17;98323.78;;;11.27;100.00
44103;BME280;29769;42.178;24.742;2023-04-04T07:58:03;98317.00;;;11.21;100.00
44103;BME280;29769;42.178;24.742;2023-04-04T08:00:48;98325.63;;;11.46;100.00
44103;BME280;29769;42.178;24.742;2023-04-04T08:03:32;98323.91;;;11.45;100.00
44103;BME280;29769;42.178;24.742;2023-04-04T08:06:17;98326.91;;;11.58;100.00
44103;BME280;29769;42.178;24.742;2023-04-04T08:09:03;98323.72;;;11.72;100.00
44103;BME280;29769;42.178;24.742;2023-04-04T08:11:48;98305.03;;;11.78;100.00
44103;BME280;29769;42.178;24.742;2023-04-04T08:14:33;98311.84;;;12.03;100.00
44103;BME280;29769;42.178;24.742;2023-04-04T08:17:18;98324.75;;;12.10;100.00
44103;BME280;29769;42.178;24.742;2023-04-04T08:20:04;98316.84;;;12.10;100.00
44103;BME280;29769;42.178;24.742;2023-04-04T08:22:49;98323.28;;;12.23;100.00
44103;BME280;29769;42.178;24.742;2023-04-04T08:25:34;98329.69;;;12.17;100.00
44103;BME280;29769;42.178;24.742;2023-04-04T08:28:19;98334.13;;;12.17;100.00
44103;BME280;29769;42.178;24.742;2023-04-04T08:31:04;98331.41;;;12.18;100.00
44103;BME280;29769;42.178;24.742;2023-04-04T08:33:49;98323.03;;;12.29;100.00
44103;BME280;29769;42.178;24.742;2023-04-04T08:36:34;98332.84;;;12.25;100.00
44103;BME280;29769;42.178;24.742;2023-04-04T08:39:19;98336.25;;;12.27;100.00
44103;BME280;29769;42.178;24.742;2023-04-04T08:42:05;98331.59;;;12.34;100.00
44103;BME280;29769;42.178;24.742;2023-04-04T08:44:51;98339.50;;;12.34;100.00
44103;BME280;29769;42.178;24.742;2023-04-04T08:47:38;98338.66;;;12.33;100.00
44103;BME280;29769;42.178;24.742;2023-04-04T08:50:26;98337.78;;;12.53;100.00
44103;BME280;29769;42.178;24.742;2023-04-04T08:53:13;98337.72;;;12.73;100.00
44103;BME280;29769;42.178;24.742;2023-04-04T08:55:59;98332.66;;;12.87;100.00
44103;BME280;29769;42.178;24.742;2023-04-04T08:58:44;98337.53;;;12.97;100.00
44103;BME280;29769;42.178;24.742;2023-04-04T09:01:29;98342.63;;;13.20;100.00
44103;BME280;29769;42.178;24.742;2023-04-04T09:04:14;98331.16;;;13.21;100.00
44103;BME280;29769;42.178;24.742;2023-04-04T09:07:00;98342.47;;;13.23;100.00
44103;BME280;29769;42.178;24.742;2023-04-04T09:09:49;98344.00;;;13.08;100.00
44103;BME280;29769;42.178;24.742;2023-04-04T09:12:36;98338.06;;;13.23;100.00
44103;BME280;29769;42.178;24.742;2023-04-04T09:15:24;98352.03;;;13.07;100.00
44103;BME280;29769;42.178;24.742;2023-04-04T09:18:09;98355.09;;;12.98;100.00
44103;BME280;29769;42.178;24.742;2023-04-04T09:20:54;98351.22;;;13.05;100.00
44103;BME280;29769;42.178;24.742;2023-04-04T09:23:39;98333.44;;;12.71;100.00
44103;BME280;29769;42.178;24.742;2023-04-04T09:26:24;98348.72;;;13.02;100.00
44103;BME280;29769;42.178;24.742;2023-04-04T09:29:09;98333.03;;;13.17;100.00
44103;BME280;29769;42.178;24.742;2023-04-04T09:31:54;98353.19;;;13.20;100.00
44103;BME280;29769;42.178;24.742;2023-04-04T09:34:40;98352.53;;;13.15;100.00
44103;BME280;29769;42.178;24.742;2023-04-04T09:37:25;98345.69;;;13.29;100.00
44103;BME280;29769;42.178;24.742;2023-04-04T09:40:12;98355.78;;;13.57;100.00
44103;BME280;29769;42.178;24.742;2023-04-04T09:43:02;98358.47;;;13.74;100.00
44103;BME280;29769;42.178;24.742;2023-04-04T09:45:47;98359.34;;;13.92;100.00
44103;BME280;29769;42.178;24.742;2023-04-04T09:48:33;98361.47;;;14.03;100.00
44103;BME280;29769;42.178;24.742;2023-04-04T09:51:20;98368.28;;;14.24;100.00
44103;BME280;29769;42.178;24.742;2023-04-04T09:54:05;98364.50;;;14.47;100.00
44103;BME280;29769;42.178;24.742;2023-04-04T09:56:50;98367.28;;;14.61;100.00
44103;BME280;29769;42.178;24.742;2023-04-04T09:59:35;98363.16;;;14.55;100.00
44103;BME280;29769;42.178;24.742;2023-04-04T10:02:20;98358.06;;;14.68;100.00
44103;BME280;29769;42.178;24.742;2023-04-04T10:05:09;98356.22;;;14.70;100.00
44103;BME280;29769;42.178;24.742;2023-04-04T10:07:56;98361.19;;;14.76;100.00
44103;BME280;29769;42.178;24.742;2023-04-04T10:10:50;98364.78;;;14.75;100.00
44103;BME280;29769;42.178;24.742;2023-04-04T10:13:36;98360.34;;;14.91;100.00
44103;BME280;29769;42.178;24.742;2023-04-04T10:16:24;98361.53;;;14.86;100.00
44103;BME280;29769;42.178;24.742;2023-04-04T10:19:10;98360.81;;;14.49;100.00
44103;BME280;29769;42.178;24.742;2023-04-04T10:21:57;98361.81;;;14.64;100.00
44103;BME280;29769;42.178;24.742;2023-04-04T10:24:43;98354.19;;;14.75;100.00
44103;BME280;29769;42.178;24.742;2023-04-04T10:27:28;98356.16;;;14.72;100.00
44103;BME280;29769;42.178;24.742;2023-04-04T10:30:13;98358.63;;;14.90;100.00
44103;BME280;29769;42.178;24.742;2023-04-04T10:33:06;98355.84;;;15.09;100.00
44103;BME280;29769;42.178;24.742;2023-04-04T10:35:53;98339.81;;;15.12;100.00
44103;BME280;29769;42.178;24.742;2023-04-04T10:38:50;98340.25;;;15.51;100.00
44103;BME280;29769;42.178;24.742;2023-04-04T10:41:39;98323.22;;;16.01;100.00
44103;BME280;29769;42.178;24.742;2023-04-04T10:44:29;98333.59;;;16.64;100.00
44103;BME280;29769;42.178;24.742;2023-04-04T10:47:20;98329.72;;;17.67;100.00
44103;BME280;29769;42.178;24.742;2023-04-04T10:50:07;98325.53;;;18.42;100.00
44103;BME280;29769;42.178;24.742;2023-04-04T10:52:54;98333.56;;;19.41;100.00
44103;BME280;29769;42.178;24.742;2023-04-04T10:55:41;98317.78;;;20.33;100.00
44103;BME280;29769;42.178;24.742;2023-04-04T10:58:28;98323.50;;;21.19;100.00
44103;BME280;29769;42.178;24.742;2023-04-04T11:01:13;98309.75;;;22.21;93.51
44103;BME280;29769;42.178;24.742;2023-04-04T11:04:18;98311.78;;;23.40;77.71
44103;BME280;29769;42.178;24.742;2023-04-04T11:09:55;98305.31;;;25.34;66.81
44103;BME280;29769;42.178;24.742;2023-04-04T11:12:44;98305.09;;;26.61;61.25
44103;BME280;29769;42.178;24.742;2023-04-04T11:21:31;98289.31;;;29.99;41.14
44103;BME280;29769;42.178;24.742;2023-04-04T11:24:16;98285.47;;;29.54;38.51
44103;BME280;29769;42.178;24.742;2023-04-04T11:27:01;98282.38;;;29.96;37.60
44103;BME280;29769;42.178;24.742;2023-04-04T11:29:50;98282.75;;;30.39;38.04
44103;BME280;29769;42.178;24.742;2023-04-04T11:32:42;98284.31;;;29.02;39.71
44103;BME280;29769;42.178;24.742;2023-04-04T11:35:30;98274.50;;;29.79;38.39
44103;BME280;29769;42.178;24.742;2023-04-04T11:38:16;98280.16;;;29.69;36.90
44103;BME280;29769;42.178;24.742;2023-04-04T11:41:01;98275.03;;;28.64;38.18
44103;BME280;29769;42.178;24.742;2023-04-04T11:43:48;98256.25;;;27.73;40.56
44103;BME280;29769;42.178;24.742;2023-04-04T11:46:34;98278.34;;;27.27;41.63
44103;BME280;29769;42.178;24.742;2023-04-04T11:49:19;98260.81;;;27.81;38.94
44103;BME280;29769;42.178;24.742;2023-04-04T11:52:10;98279.41;;;27.34;42.24
44103;BME280;29769;42.178;24.742;2023-04-04T11:54:56;98287.25;;;26.42;43.75
44103;BME280;29769;42.178;24.742;2023-04-04T11:57:41;98282.75;;;25.89;45.80
44103;BME280;29769;42.178;24.742;2023-04-04T12:00:36;98279.00;;;25.55;46.98
44103;BME280;29769;42.178;24.742;2023-04-04T12:03:22;98255.34;;;25.21;47.16
44103;BME280;29769;42.178;24.742;2023-04-04T12:06:10;98278.56;;;24.86;47.37
44103;BME280;29769;42.178;24.742;2023-04-04T12:08:55;98280.25;;;24.02;49.36
44103;BME280;29769;42.178;24.742;2023-04-04T12:11:40;98253.59;;;23.41;51.67
44103;BME280;29769;42.178;24.742;2023-04-04T12:14:25;98286.34;;;22.95;53.50
44103;BME280;29769;42.178;24.742;2023-04-04T12:17:14;98273.81;;;22.24;57.35
44103;BME280;29769;42.178;24.742;2023-04-04T12:19:59;98265.81;;;21.81;57.77
44103;BME280;29769;42.178;24.742;2023-04-04T12:22:48;98263.97;;;21.60;58.88
44103;BME280;29769;42.178;24.742;2023-04-04T12:25:35;98282.50;;;21.08;59.24
44103;BME280;29769;42.178;24.742;2023-04-04T12:28:22;98284.63;;;18.93;70.31
44103;BME280;29769;42.178;24.742;2023-04-04T12:31:07;98269.31;;;18.84;69.55
44103;BME280;29769;42.178;24.742;2023-04-04T12:33:53;98284.19;;;18.87;71.25
44103;BME280;29769;42.178;24.742;2023-04-04T12:36:39;98280.81;;;18.72;71.72
44103;BME280;29769;42.178;24.742;2023-04-04T12:39:28;98273.53;;;18.23;74.46
44103;BME280;29769;42.178;24.742;2023-04-04T12:42:23;98283.22;;;17.46;83.95
44103;BME280;29769;42.178;24.742;2023-04-04T12:45:08;98297.88;;;16.83;96.06
44103;BME280;29769;42.178;24.742;2023-04-04T12:47:55;98274.13;;;16.38;100.00
44103;BME280;29769;42.178;24.742;2023-04-04T12:50:51;98298.72;;;16.12;100.00
44103;BME280;29769;42.178;24.742;2023-04-04T12:53:50;98290.59;;;14.92;100.00
44103;BME280;29769;42.178;24.742;2023-04-04T12:56:40;98302.41;;;14.37;100.00
44103;BME280;29769;42.178;24.742;2023-04-04T12:59:29;98316.50;;;14.03;100.00
44103;BME280;29769;42.178;24.742;2023-04-04T13:02:18;98320.84;;;13.69;100.00
44103;BME280;29769;42.178;24.742;2023-04-04T13:05:04;98339.41;;;13.13;100.00
44103;BME280;29769;42.178;24.742;2023-04-04T13:07:50;98340.38;;;11.94;100.00
44103;BME280;29769;42.178;24.742;2023-04-04T13:10:54;98357.59;;;11.37;100.00
44103;BME280;29769;42.178;24.742;2023-04-04T13:13:40;98344.53;;;11.12;100.00
44103;BME280;29769;42.178;24.742;2023-04-04T13:19:13;98393.84;;;10.61;100.00
44103;BME280;29769;42.178;24.742;2023-04-04T13:21:59;98405.06;;;10.15;100.00
44103;BME280;29769;42.178;24.742;2023-04-04T13:24:44;98393.09;;;9.80;100.00
44103;BME280;29769;42.178;24.742;2023-04-04T13:27:29;98401.00;;;9.52;100.00
44103;BME280;29769;42.178;24.742;2023-04-04T13:30:14;98400.28;;;9.47;100.00
44103;BME280;29769;42.178;24.742;2023-04-04T13:32:59;98404.09;;;9.37;100.00
44103;BME280;29769;42.178;24.742;2023-04-04T13:35:45;98411.94;;;9.38;100.00
44103;BME280;29769;42.178;24.742;2023-04-04T13:38:30;98400.53;;;9.40;100.00
44103;BME280;29769;42.178;24.742;2023-04-04T13:41:15;98417.94;;;9.42;100.00
44103;BME280;29769;42.178;24.742;2023-04-04T13:43:59;98416.06;;;9.46;100.00
44103;BME280;29769;42.178;24.742;2023-04-04T13:46:44;98413.41;;;9.47;100.00
44103;BME280;29769;42.178;24.742;2023-04-04T13:49:29;98411.25;;;9.32;100.00
44103;BME280;29769;42.178;24.742;2023-04-04T13:52:14;98398.69;;;9.14;100.00
44103;BME280;29769;42.178;24.742;2023-04-04T13:54:59;98424.28;;;9.06;100.00
44103;BME280;29769;42.178;24.742;2023-04-04T13:57:45;98408.84;;;8.95;100.00
44103;BME280;29769;42.178;24.742;2023-04-04T14:00:30;98424.25;;;9.07;100.00
44103;BME280;29769;42.178;24.742;2023-04-04T14:03:16;98394.97;;;8.91;100.00
44103;BME280;29769;42.178;24.742;2023-04-04T14:06:01;98418.25;;;9.04;100.00
44103;BME280;29769;42.178;24.742;2023-04-04T14:08:46;98414.09;;;8.95;100.00
44103;BME280;29769;42.178;24.742;2023-04-04T14:11:32;98361.69;;;8.64;100.00
44103;BME280;29769;42.178;24.742;2023-04-04T14:14:17;98386.91;;;8.68;100.00
44103;BME280;29769;42.178;24.742;2023-04-04T14:17:02;98401.31;;;8.84;100.00
44103;BME280;29769;42.178;24.742;2023-04-04T14:19:47;98397.88;;;8.82;100.00
44103;BME280;29769;42.178;24.742;2023-04-04T14:22:32;98358.28;;;8.62;100.00
44103;BME280;29769;42.178;24.742;2023-04-04T14:25:17;98402.94;;;8.88;100.00
44103;BME280;29769;42.178;24.742;2023-04-04T14:28:02;98363.72;;;8.85;100.00
44103;BME280;29769;42.178;24.742;2023-04-04T14:30:48;98404.03;;;9.11;100.00
44103;BME280;29769;42.178;24.742;2023-04-04T14:33:33;98393.94;;;9.26;100.00
44103;BME280;29769;42.178;24.742;2023-04-04T14:36:18;98400.72;;;9.33;100.00
44103;BME280;29769;42.178;24.742;2023-04-04T14:39:05;98390.94;;;9.38;100.00
44103;BME280;29769;42.178;24.742;2023-04-04T14:41:50;98438.97;;;9.41;100.00
44103;BME280;29769;42.178;24.742;2023-04-04T14:44:35;98448.44;;;9.46;100.00
44103;BME280;29769;42.178;24.742;2023-04-04T14:47:19;98414.44;;;9.42;100.00
44103;BME280;29769;42.178;24.742;2023-04-04T14:50:06;98430.28;;;9.40;100.00
44103;BME280;29769;42.178;24.742;2023-04-04T14:52:51;98454.03;;;9.35;100.00